createdAt,value
2022-09-15T00:01:14.406Z,89.85
2022-09-15T00:03:42.546Z,90.29
2022-09-15T00:06:10.833Z,90.16
2022-09-15T00:08:39.390Z,90.44
2022-09-15T00:11:11.459Z,90.62
2022-09-15T00:13:40.476Z,90.64
2022-09-15T00:16:09.572Z,91.31
2022-09-15T00:18:39.757Z,91.38
2022-09-15T00:21:10.801Z,91.32
2022-09-15T00:23:39.715Z,91.42
2022-09-15T00:26:09.840Z,91.68
2022-09-15T00:28:38.091Z,92.08
2022-09-15T00:31:09.132Z,92.73
2022-09-15T00:33:37.219Z,93.00
2022-09-15T00:36:07.187Z,93.03
2022-09-15T00:38:35.840Z,93.20
2022-09-15T00:41:04.336Z,92.91
2022-09-15T00:43:54.611Z,92.68
2022-09-15T00:46:31.288Z,93.30
2022-09-15T00:49:21.599Z,93.46
2022-09-15T00:51:50.560Z,93.07
2022-09-15T00:54:23.615Z,93.77
2022-09-15T00:56:55.325Z,94.05
2022-09-15T00:59:28.271Z,93.76
2022-09-15T01:02:03.248Z,93.87
2022-09-15T01:04:30.956Z,93.31
2022-09-15T01:07:02.539Z,93.60
2022-09-15T01:09:37.996Z,93.33
2022-09-15T01:12:05.675Z,93.10
2022-09-15T01:14:33.625Z,93.77
2022-09-15T01:17:09.785Z,93.60
2022-09-15T01:20:01.951Z,93.83
2022-09-15T01:23:12.999Z,94.04
2022-09-15T01:25:50.440Z,93.61
2022-09-15T01:28:33.421Z,93.96
2022-09-15T01:31:04.413Z,93.36
2022-09-15T01:34:02.429Z,94.05
2022-09-15T01:36:41.991Z,94.06
2022-09-15T01:39:33.088Z,94.02
2022-09-15T01:42:05.048Z,93.78
2022-09-15T01:44:38.152Z,93.69
2022-09-15T01:47:10.072Z,93.79
2022-09-15T01:49:41.826Z,93.62
2022-09-15T01:52:09.161Z,94.25
2022-09-15T01:54:41.920Z,93.49
2022-09-15T01:57:09.395Z,93.98
2022-09-15T01:59:36.890Z,94.60
2022-09-15T02:02:11.417Z,93.69
2022-09-15T02:05:08.108Z,94.65
2022-09-15T02:07:48.203Z,95.84
2022-09-15T02:10:25.515Z,95.38
2022-09-15T02:13:01.571Z,87.13
2022-09-15T02:15:43.028Z,83.61
2022-09-15T02:18:13.864Z,83.06
2022-09-15T02:20:51.944Z,82.32
2022-09-15T02:23:32.584Z,84.02
2022-09-15T02:26:06.577Z,83.02
2022-09-15T02:28:38.668Z,81.28
2022-09-15T02:31:11.807Z,80.14
2022-09-15T02:33:46.518Z,79.25
2022-09-15T02:36:17.844Z,78.61
2022-09-15T02:38:50.193Z,78.36
2022-09-15T02:41:17.587Z,77.97
2022-09-15T02:43:47.170Z,77.38
2022-09-15T02:46:16.125Z,77.09
2022-09-15T02:48:43.421Z,76.72
2022-09-15T02:51:11.153Z,78.55
2022-09-15T02:53:41.467Z,78.22
2022-09-15T02:56:09.261Z,77.83
2022-09-15T02:58:36.815Z,78.23
2022-09-15T03:01:05.745Z,78.15
2022-09-15T03:03:33.764Z,77.37
2022-09-15T03:06:01.399Z,77.88
2022-09-15T03:08:28.899Z,78.50
2022-09-15T03:10:57.560Z,79.38
2022-09-15T03:13:24.768Z,78.88
2022-09-15T03:15:52.268Z,77.73
2022-09-15T03:18:19.623Z,78.28
2022-09-15T03:20:46.948Z,79.02
2022-09-15T03:23:14.320Z,82.42
2022-09-15T03:25:42.117Z,79.78
2022-09-15T03:28:09.407Z,81.54
2022-09-15T03:30:36.726Z,82.06
2022-09-15T03:33:04.033Z,82.29
2022-09-15T03:35:31.307Z,80.19
2022-09-15T03:37:58.686Z,81.72
2022-09-15T03:40:25.992Z,81.66
2022-09-15T03:42:53.662Z,83.03
2022-09-15T03:45:21.507Z,82.38
2022-09-15T03:47:48.961Z,81.56
2022-09-15T03:50:16.529Z,81.16
2022-09-15T03:52:43.853Z,80.83
2022-09-15T03:55:11.132Z,82.63
2022-09-15T03:57:38.788Z,84.32
2022-09-15T04:00:06.926Z,83.02
2022-09-15T04:02:34.335Z,83.03
2022-09-15T04:05:01.669Z,83.64
2022-09-15T04:07:29.038Z,81.38
2022-09-15T04:09:56.717Z,81.56
2022-09-15T04:12:24.240Z,81.24
2022-09-15T04:14:51.654Z,81.73
2022-09-15T04:17:19.162Z,80.28
2022-09-15T04:19:46.584Z,80.89
2022-09-15T04:22:17.869Z,80.58
2022-09-15T04:24:46.087Z,81.54
2022-09-15T04:27:15.582Z,79.58
2022-09-15T04:29:43.959Z,79.77
2022-09-15T04:32:11.786Z,79.81
2022-09-15T04:34:41.556Z,77.41
2022-09-15T04:37:11.321Z,77.26
2022-09-15T04:39:39.194Z,77.43
2022-09-15T04:42:07.232Z,77.29
2022-09-15T04:44:34.503Z,76.67
2022-09-15T04:47:01.883Z,76.43
2022-09-15T04:49:29.195Z,76.67
2022-09-15T04:51:56.558Z,76.76
2022-09-15T04:54:24.010Z,77.07
2022-09-15T04:56:51.358Z,76.67
2022-09-15T04:59:19.044Z,75.63
2022-09-15T05:01:46.845Z,76.14
2022-09-15T05:04:15.048Z,77.34
2022-09-15T05:06:43.619Z,76.08
2022-09-15T05:09:13.494Z,75.22
2022-09-15T05:11:41.547Z,75.29
2022-09-15T05:14:10.702Z,76.52
2022-09-15T05:16:38.399Z,76.89
2022-09-15T05:19:05.959Z,75.30
2022-09-15T05:21:33.381Z,74.34
2022-09-15T05:24:00.736Z,73.25
2022-09-15T05:26:29.444Z,73.25
2022-09-15T05:28:57.982Z,73.41
2022-09-15T05:31:31.283Z,73.18
2022-09-15T05:34:01.037Z,73.94
2022-09-15T05:36:29.001Z,74.83
2022-09-15T05:38:57.357Z,73.70
2022-09-15T05:41:25.850Z,74.40
2022-09-15T05:43:54.859Z,72.91
2022-09-15T05:46:22.506Z,72.27
2022-09-15T05:48:49.872Z,71.78
2022-09-15T05:51:17.193Z,72.89
2022-09-15T05:53:44.652Z,72.91
2022-09-15T05:56:18.258Z,72.08
2022-09-15T05:58:48.939Z,73.60
2022-09-15T06:01:17.377Z,73.55
2022-09-15T06:03:45.479Z,72.79
2022-09-15T06:06:13.324Z,73.04
2022-09-15T06:08:44.441Z,71.26
2022-09-15T06:11:16.107Z,71.60
2022-09-15T06:13:46.966Z,71.31
2022-09-15T06:16:23.748Z,71.10
2022-09-15T06:18:53.220Z,71.63
2022-09-15T06:21:25.891Z,70.39
2022-09-15T06:23:55.085Z,70.34
2022-09-15T06:26:27.191Z,69.43
2022-09-15T06:28:57.506Z,69.20
2022-09-15T06:31:30.551Z,69.51
2022-09-15T06:33:58.613Z,70.16
2022-09-15T06:36:30.277Z,69.08
2022-09-15T06:38:58.640Z,68.51
2022-09-15T06:41:26.521Z,68.00
2022-09-15T06:43:57.193Z,69.00
2022-09-15T06:46:26.532Z,69.38
2022-09-15T06:48:54.422Z,69.06
2022-09-15T06:51:24.739Z,69.37
2022-09-15T06:53:56.294Z,69.93
2022-09-15T06:56:31.683Z,70.61
2022-09-15T06:59:02.625Z,71.12
2022-09-15T07:01:31.898Z,69.65
2022-09-15T07:04:01.323Z,69.44
2022-09-15T07:06:31.427Z,68.88
2022-09-15T07:08:59.250Z,68.94
2022-09-15T07:11:26.627Z,68.82
2022-09-15T07:13:54.022Z,68.57
2022-09-15T07:16:22.036Z,68.64
2022-09-15T07:18:49.459Z,68.03
2022-09-15T07:21:20.923Z,68.47
2022-09-15T07:23:49.418Z,68.04
2022-09-15T07:26:20.470Z,67.79
2022-09-15T07:28:49.292Z,67.13
2022-09-15T07:31:18.948Z,66.58
2022-09-15T07:33:46.515Z,67.10
2022-09-15T07:36:15.179Z,66.85
2022-09-15T07:38:45.036Z,66.20
2022-09-15T07:41:15.016Z,65.76
2022-09-15T07:43:50.064Z,66.07
2022-09-15T07:46:18.871Z,66.82
2022-09-15T07:48:47.805Z,66.30
2022-09-15T07:51:16.743Z,65.74
2022-09-15T07:53:46.406Z,64.95
2022-09-15T07:56:14.113Z,63.89
2022-09-15T07:58:41.459Z,65.25
2022-09-15T08:01:10.394Z,64.10
2022-09-15T08:03:41.761Z,64.00
2022-09-15T08:06:10.682Z,64.20
2022-09-15T08:08:39.434Z,64.58
2022-09-15T08:11:17.695Z,64.23
2022-09-15T08:13:47.303Z,63.89
2022-09-15T08:16:16.935Z,64.18
2022-09-15T08:18:44.684Z,63.52
2022-09-15T08:21:17.208Z,62.45
2022-09-15T08:23:44.982Z,61.41
2022-09-15T08:26:14.435Z,61.64
2022-09-15T08:28:42.554Z,62.42
2022-09-15T08:31:12.782Z,60.94
2022-09-15T08:33:44.767Z,61.51
2022-09-15T08:36:13.637Z,58.87
2022-09-15T08:38:43.054Z,60.65
2022-09-15T08:41:20.541Z,59.61
2022-09-15T08:44:15.604Z,58.93
2022-09-15T08:46:56.873Z,55.80
2022-09-15T08:49:52.709Z,55.79
2022-09-15T08:52:41.111Z,50.79
2022-09-15T08:55:30.358Z,48.43
2022-09-15T08:57:57.753Z,50.87
2022-09-15T09:00:26.395Z,50.40
2022-09-15T09:03:25.409Z,47.95
2022-09-15T09:05:55.568Z,46.72
2022-09-15T09:08:32.304Z,46.33
2022-09-15T09:11:31.743Z,44.65
2022-09-15T09:14:21.394Z,44.96
2022-09-15T09:17:12.384Z,43.42
2022-09-15T09:20:07.699Z,43.74
2022-09-15T09:22:39.413Z,43.94
2022-09-15T09:25:26.617Z,44.17
2022-09-15T09:27:57.005Z,44.67
2022-09-15T09:30:27.396Z,43.18
2022-09-15T09:33:03.532Z,43.60
2022-09-15T09:35:41.888Z,43.92
2022-09-15T09:38:10.568Z,43.29
2022-09-15T09:40:38.886Z,42.54
2022-09-15T09:43:06.565Z,42.78
2022-09-15T09:45:34.395Z,41.60
2022-09-15T09:48:09.425Z,40.88
2022-09-15T09:50:38.107Z,41.21
2022-09-15T09:53:25.108Z,40.92
2022-09-15T09:55:54.772Z,41.09
2022-09-15T09:58:25.305Z,40.76
2022-09-15T10:00:52.853Z,39.95
2022-09-15T10:03:29.427Z,39.94
2022-09-15T10:06:04.640Z,39.20
2022-09-15T10:08:33.585Z,40.04
2022-09-15T10:11:05.520Z,38.64
2022-09-15T10:13:35.699Z,39.15
2022-09-15T10:16:05.980Z,39.69
2022-09-15T10:18:35.382Z,40.43
2022-09-15T10:21:08.813Z,40.18
2022-09-15T10:23:36.698Z,40.33
2022-09-15T10:26:34.370Z,40.25
2022-09-15T10:29:18.003Z,39.00
2022-09-15T10:31:47.891Z,38.17
2022-09-15T10:34:33.678Z,43.46
2022-09-15T10:37:18.666Z,40.19
2022-09-15T10:39:53.909Z,40.25
2022-09-15T10:42:27.100Z,40.41
2022-09-15T10:45:17.857Z,40.04
2022-09-15T10:47:52.963Z,40.19
2022-09-15T10:50:26.377Z,41.24
2022-09-15T10:53:19.618Z,41.33
2022-09-15T10:55:55.963Z,40.18
2022-09-15T10:58:51.959Z,40.59
2022-09-15T11:01:28.131Z,40.77
2022-09-15T11:04:10.308Z,40.62
2022-09-15T11:07:02.411Z,41.21
2022-09-15T11:09:35.095Z,41.79
2022-09-15T11:12:19.867Z,41.44
2022-09-15T11:14:52.868Z,41.47
2022-09-15T11:17:48.832Z,41.34
2022-09-15T11:20:39.420Z,42.75
2022-09-15T11:23:13.556Z,42.68
2022-09-15T11:25:48.635Z,41.94
2022-09-15T11:28:23.463Z,42.01
2022-09-15T11:31:03.152Z,42.21
2022-09-15T11:33:41.771Z,41.90
2022-09-15T11:36:15.677Z,41.06
2022-09-15T11:38:54.562Z,41.32
2022-09-15T11:41:27.804Z,42.10
2022-09-15T11:44:18.465Z,41.43
2022-09-15T11:46:57.913Z,41.68
2022-09-15T11:49:31.408Z,40.54
2022-09-15T11:52:07.927Z,40.91
2022-09-15T11:54:44.898Z,40.55
2022-09-15T11:57:21.193Z,41.29
2022-09-15T12:00:00.744Z,40.67
2022-09-15T12:02:57.261Z,40.86
2022-09-15T12:05:32.911Z,41.18
2022-09-15T12:08:19.169Z,40.46
2022-09-15T12:10:50.627Z,40.22
2022-09-15T12:13:20.413Z,40.37
2022-09-15T12:15:49.688Z,40.28
2022-09-15T12:18:46.910Z,40.15
2022-09-15T12:21:21.727Z,40.04
2022-09-15T12:24:07.651Z,40.69
2022-09-15T12:26:35.617Z,41.16
2022-09-15T12:29:34.271Z,40.80
2022-09-15T12:32:19.590Z,40.36
2022-09-15T12:34:55.868Z,40.36
2022-09-15T12:37:24.836Z,41.31
2022-09-15T12:39:52.649Z,40.67
2022-09-15T12:42:21.434Z,40.76
2022-09-15T12:44:58.315Z,40.15
2022-09-15T12:47:40.046Z,40.73
2022-09-15T12:50:14.457Z,40.47
2022-09-15T12:52:49.029Z,40.39
2022-09-15T12:55:23.714Z,40.66
2022-09-15T12:57:57.732Z,40.44
2022-09-15T13:00:30.791Z,40.64
2022-09-15T13:02:58.663Z,40.27
2022-09-15T13:05:41.650Z,40.98
2022-09-15T13:08:24.293Z,40.78
2022-09-15T13:11:06.716Z,41.09
2022-09-15T13:13:43.969Z,40.93
2022-09-15T13:16:21.858Z,41.01
2022-09-15T13:19:14.149Z,40.72
2022-09-15T13:21:47.147Z,40.77
2022-09-15T13:24:30.775Z,40.64
2022-09-15T13:26:58.955Z,40.70
2022-09-15T13:29:29.640Z,41.77
2022-09-15T13:32:38.692Z,41.78
2022-09-15T13:35:38.755Z,42.48
2022-09-15T13:38:22.052Z,43.40
2022-09-15T13:41:03.025Z,43.35
2022-09-15T13:43:52.326Z,43.08
2022-09-15T13:46:36.453Z,44.06
2022-09-15T13:49:15.799Z,43.14
2022-09-15T13:51:53.204Z,43.32
2022-09-15T13:54:20.893Z,43.70
2022-09-15T13:56:48.243Z,42.98
2022-09-15T13:59:24.742Z,44.36
2022-09-15T14:01:56.369Z,43.62
2022-09-15T14:04:28.299Z,43.11
2022-09-15T14:07:00.969Z,43.78
2022-09-15T14:09:39.912Z,44.46
2022-09-15T14:12:13.453Z,44.85
2022-09-15T14:14:57.302Z,44.87
2022-09-15T14:17:31.564Z,45.53
2022-09-15T14:20:00.870Z,45.44
2022-09-15T14:22:30.831Z,45.96
2022-09-15T14:25:01.008Z,46.08
2022-09-15T14:27:34.727Z,46.33
2022-09-15T14:30:05.382Z,46.54
2022-09-15T14:32:39.674Z,46.76
2022-09-15T14:35:16.019Z,47.10
2022-09-15T14:37:54.518Z,47.15
2022-09-15T14:40:29.563Z,47.09
2022-09-15T14:42:57.865Z,47.13
2022-09-15T14:45:58.290Z,47.28
2022-09-15T14:48:25.552Z,47.78
2022-09-15T14:51:02.282Z,49.38
2022-09-15T14:53:34.126Z,49.80
2022-09-15T14:56:17.187Z,49.82
2022-09-15T14:58:58.681Z,50.36
2022-09-15T15:01:38.049Z,49.85
2022-09-15T15:04:15.692Z,49.74
2022-09-15T15:06:58.143Z,49.87
2022-09-15T15:09:40.599Z,50.64
2022-09-15T15:12:24.265Z,49.85
2022-09-15T15:14:55.816Z,50.31
2022-09-15T15:17:33.959Z,51.03
2022-09-15T15:20:28.925Z,51.01
2022-09-15T15:23:14.509Z,51.24
2022-09-15T15:25:42.326Z,50.83
2022-09-15T15:28:48.175Z,51.28
2022-09-15T15:31:19.553Z,50.85
2022-09-15T15:33:53.184Z,50.85
2022-09-15T15:36:23.287Z,52.17
2022-09-15T15:38:59.059Z,53.11
2022-09-15T15:41:41.281Z,52.91
2022-09-15T15:44:14.842Z,51.88
2022-09-15T15:46:47.839Z,51.32
2022-09-15T15:49:15.821Z,51.36
2022-09-15T15:51:43.125Z,51.68
2022-09-15T15:54:10.974Z,51.71
2022-09-15T15:56:39.150Z,51.41
2022-09-15T15:59:06.737Z,51.58
2022-09-15T16:01:34.280Z,51.87
2022-09-15T16:04:02.020Z,52.07
2022-09-15T16:06:29.538Z,52.04
2022-09-15T16:08:57.880Z,52.10
2022-09-15T16:11:25.450Z,52.63
2022-09-15T16:13:53.511Z,52.55
2022-09-15T16:16:23.971Z,53.09
2022-09-15T16:18:51.588Z,53.14
2022-09-15T16:21:20.392Z,53.11
2022-09-15T16:23:47.843Z,53.70
2022-09-15T16:26:18.499Z,53.66
2022-09-15T16:28:45.736Z,53.43
2022-09-15T16:31:16.122Z,54.80
2022-09-15T16:33:44.001Z,55.66
2022-09-15T16:36:16.545Z,56.13
2022-09-15T16:38:44.983Z,56.25
2022-09-15T16:41:21.142Z,55.97
2022-09-15T16:43:49.363Z,56.46
2022-09-15T16:46:16.877Z,55.86
2022-09-15T16:48:45.243Z,56.17
2022-09-15T16:51:34.498Z,56.98
2022-09-15T16:54:02.071Z,56.54
2022-09-15T16:56:32.190Z,56.99
2022-09-15T16:59:00.682Z,56.45
2022-09-15T17:01:28.212Z,57.03
2022-09-15T17:03:55.633Z,57.10
2022-09-15T17:06:23.469Z,57.77
2022-09-15T17:08:50.785Z,57.38
2022-09-15T17:11:20.528Z,58.17
2022-09-15T17:13:49.419Z,57.96
2022-09-15T17:16:19.004Z,58.64
2022-09-15T17:18:46.472Z,58.09
2022-09-15T17:21:15.915Z,57.78
2022-09-15T17:23:46.164Z,57.45
2022-09-15T17:26:21.100Z,57.04
2022-09-15T17:28:48.678Z,57.50
2022-09-15T17:31:19.155Z,59.54
2022-09-15T17:33:47.047Z,59.46
2022-09-15T17:36:14.760Z,59.79
2022-09-15T17:38:42.261Z,59.72
2022-09-15T17:41:15.357Z,60.14
2022-09-15T17:43:42.988Z,59.20
2022-09-15T17:46:10.808Z,59.02
2022-09-15T17:48:38.370Z,59.25
2022-09-15T17:51:07.174Z,59.36
2022-09-15T17:53:34.543Z,59.00
2022-09-15T17:56:02.246Z,58.50
2022-09-15T17:58:29.916Z,57.90
2022-09-15T18:00:58.115Z,59.78
2022-09-15T18:03:28.860Z,59.93
2022-09-15T18:05:57.637Z,59.29
2022-09-15T18:08:25.589Z,59.07
2022-09-15T18:10:53.586Z,57.70
2022-09-15T18:13:23.663Z,57.72
2022-09-15T18:15:51.319Z,58.40
2022-09-15T18:18:20.918Z,58.40
2022-09-15T18:20:49.032Z,58.60
2022-09-15T18:23:19.585Z,58.61
2022-09-15T18:25:47.756Z,58.50
2022-09-15T18:28:16.654Z,58.74
2022-09-15T18:30:46.652Z,58.54
2022-09-15T18:33:15.352Z,58.41
2022-09-15T18:35:43.451Z,58.62
2022-09-15T18:38:12.002Z,58.90
2022-09-15T18:40:44.307Z,58.88
2022-09-15T18:43:11.817Z,59.59
2022-09-15T18:45:40.377Z,58.94
2022-09-15T18:48:12.003Z,59.98
2022-09-15T18:50:41.809Z,59.76
2022-09-15T18:53:09.898Z,60.26
2022-09-15T18:55:40.524Z,59.98
2022-09-15T18:58:08.333Z,60.20
2022-09-15T19:00:36.114Z,58.81
2022-09-15T19:03:06.527Z,58.98
2022-09-15T19:05:33.878Z,59.14
2022-09-15T19:08:02.226Z,59.39
2022-09-15T19:10:29.731Z,60.01
2022-09-15T19:12:57.184Z,59.92
2022-09-15T19:15:24.859Z,60.10
2022-09-15T19:17:52.416Z,60.75
2022-09-15T19:20:20.102Z,61.08
2022-09-15T19:22:47.642Z,60.94
2022-09-15T19:25:14.994Z,61.18
2022-09-15T19:27:42.915Z,61.43
2022-09-15T19:30:10.892Z,61.56
2022-09-15T19:32:39.880Z,62.36
2022-09-15T19:35:08.713Z,62.89
2022-09-15T19:37:39.188Z,63.38
2022-09-15T19:40:08.771Z,64.03
2022-09-15T19:42:40.757Z,64.75
2022-09-15T19:45:09.869Z,64.82
2022-09-15T19:47:38.353Z,65.05
2022-09-15T19:50:07.566Z,65.72
2022-09-15T19:52:34.951Z,64.56
2022-09-15T19:55:02.288Z,63.71
2022-09-15T19:57:29.715Z,64.16
2022-09-15T19:59:57.009Z,62.66
2022-09-15T20:02:24.291Z,62.80
2022-09-15T20:04:51.606Z,62.89
2022-09-15T20:07:18.888Z,63.86
2022-09-15T20:09:46.194Z,63.96
2022-09-15T20:12:13.582Z,63.32
2022-09-15T20:14:41.362Z,63.15
2022-09-15T20:17:08.664Z,63.80
2022-09-15T20:19:36.524Z,63.61
2022-09-15T20:22:04.591Z,62.44
2022-09-15T20:24:31.874Z,61.37
2022-09-15T20:26:59.223Z,60.38
2022-09-15T20:29:26.681Z,60.24
2022-09-15T20:31:54.078Z,60.61
2022-09-15T20:34:21.362Z,60.16
2022-09-15T20:36:48.691Z,60.69
2022-09-15T20:39:16.703Z,60.81
2022-09-15T20:41:44.008Z,59.98
2022-09-15T20:44:11.320Z,60.88
2022-09-15T20:46:38.717Z,60.80
2022-09-15T20:49:06.822Z,60.80
2022-09-15T20:51:34.378Z,61.19
2022-09-15T20:54:04.223Z,61.02
2022-09-15T20:56:34.373Z,60.97
2022-09-15T20:59:01.702Z,61.58
2022-09-15T21:01:33.627Z,62.34
2022-09-15T21:04:01.051Z,63.20
2022-09-15T21:06:29.161Z,63.81
2022-09-15T21:08:57.715Z,63.61
2022-09-15T21:11:27.016Z,63.47
2022-09-15T21:13:55.653Z,63.50
2022-09-15T21:16:25.404Z,63.35
2022-09-15T21:18:53.428Z,63.53
2022-09-15T21:21:28.265Z,63.78
2022-09-15T21:24:00.615Z,64.30
2022-09-15T21:26:30.825Z,64.52
2022-09-15T21:28:58.108Z,64.78
2022-09-15T21:31:31.779Z,64.50
2022-09-15T21:33:59.718Z,64.91
2022-09-15T21:36:29.062Z,64.93
2022-09-15T21:38:57.942Z,65.27
2022-09-15T21:41:27.811Z,65.16
2022-09-15T21:43:55.800Z,65.82
2022-09-15T21:46:25.360Z,66.53
2022-09-15T21:48:52.956Z,66.61
2022-09-15T21:51:24.651Z,65.99
2022-09-15T21:53:54.081Z,66.72
2022-09-15T21:56:22.704Z,66.67
2022-09-15T21:58:50.042Z,67.02
2022-09-15T22:01:24.642Z,67.10
2022-09-15T22:04:03.761Z,67.36
2022-09-15T22:06:34.250Z,67.63
2022-09-15T22:09:08.002Z,67.17
2022-09-15T22:11:36.301Z,66.49
2022-09-15T22:14:05.328Z,66.00
2022-09-15T22:16:32.744Z,66.31
2022-09-15T22:19:00.040Z,65.79
2022-09-15T22:21:30.142Z,65.11
2022-09-15T22:23:58.603Z,64.60
2022-09-15T22:26:29.080Z,64.31
2022-09-15T22:28:58.726Z,64.58
2022-09-15T22:31:27.443Z,64.81
2022-09-15T22:33:55.349Z,65.92
2022-09-15T22:36:29.759Z,64.97
2022-09-15T22:38:59.274Z,65.13
2022-09-15T22:41:26.514Z,64.72
2022-09-15T22:43:54.046Z,64.83
2022-09-15T22:46:21.382Z,65.53
2022-09-15T22:48:49.352Z,66.08
2022-09-15T22:51:17.361Z,67.02
2022-09-15T22:53:45.009Z,66.91
2022-09-15T22:56:14.895Z,67.56
2022-09-15T22:58:44.138Z,64.67
2022-09-15T23:01:18.697Z,63.33
2022-09-15T23:04:01.667Z,63.52
2022-09-15T23:06:31.559Z,62.22
2022-09-15T23:09:07.048Z,61.12
2022-09-15T23:11:35.678Z,61.23
2022-09-15T23:14:04.587Z,61.18
2022-09-15T23:16:32.021Z,62.29
2022-09-15T23:19:00.600Z,63.05
2022-09-15T23:21:28.019Z,62.93
2022-09-15T23:23:55.431Z,63.59
2022-09-15T23:26:24.313Z,63.78
2022-09-15T23:28:52.088Z,63.18
2022-09-15T23:31:20.348Z,62.54
2022-09-15T23:33:48.821Z,62.15
2022-09-15T23:36:18.419Z,61.67
2022-09-15T23:38:47.261Z,61.71
2022-09-15T23:41:16.286Z,62.12
2022-09-15T23:43:44.086Z,62.91
2022-09-15T23:46:13.177Z,63.21
2022-09-15T23:48:40.701Z,63.90
2022-09-15T23:51:08.303Z,64.39
2022-09-15T23:53:35.693Z,64.42
2022-09-15T23:56:03.203Z,65.21
2022-09-15T23:58:30.594Z,64.17
